createdAt,value
2023-01-12T00:01:43.841Z,-1.72
2023-01-12T00:04:30.696Z,-1.61
2023-01-12T00:07:08.733Z,-1.70
2023-01-12T00:09:44.995Z,-1.57
2023-01-12T00:12:26.394Z,-1.59
2023-01-12T00:15:09.836Z,-1.78
2023-01-12T00:17:45.118Z,-1.79
2023-01-12T00:20:30.257Z,-1.76
2023-01-12T00:23:03.660Z,-1.78
2023-01-12T00:25:49.908Z,-1.72
2023-01-12T00:28:25.794Z,-1.72
2023-01-12T00:31:03.452Z,-1.76
2023-01-12T00:33:39.685Z,-1.69
2023-01-12T00:36:16.397Z,-1.69
2023-01-12T00:39:12.614Z,-1.75
2023-01-12T00:42:04.358Z,-1.72
2023-01-12T00:44:52.377Z,-1.60
2023-01-12T00:47:30.780Z,-1.59
2023-01-12T00:50:08.916Z,-1.48
2023-01-12T00:52:56.233Z,-1.44
2023-01-12T00:55:30.992Z,-1.21
2023-01-12T00:58:08.810Z,-1.23
2023-01-12T01:00:49.690Z,-1.35
2023-01-12T01:03:34.522Z,-1.35
2023-01-12T01:06:13.320Z,-1.36
2023-01-12T01:08:49.228Z,-1.35
2023-01-12T01:11:35.200Z,-1.35
2023-01-12T01:14:12.439Z,-1.15
2023-01-12T01:16:58.928Z,-1.12
2023-01-12T01:19:40.774Z,-0.94
2023-01-12T01:22:24.763Z,-0.80
2023-01-12T01:25:05.391Z,-0.72
2023-01-12T01:27:43.673Z,-0.74
2023-01-12T01:30:24.262Z,-0.72
2023-01-12T01:33:03.192Z,-0.67
2023-01-12T01:35:41.220Z,-0.61
2023-01-12T01:38:34.208Z,-0.55
2023-01-12T01:41:11.087Z,-0.32
2023-01-12T01:44:05.574Z,-0.40
2023-01-12T01:46:58.589Z,-0.31
2023-01-12T01:49:47.993Z,-0.13
2023-01-12T01:52:33.957Z,-0.11
2023-01-12T01:55:14.199Z,-0.24
2023-01-12T01:58:10.513Z,-0.07
2023-01-12T02:00:52.389Z,-0.01
2023-01-12T02:03:30.624Z,0.07
2023-01-12T02:06:12.806Z,0.07
2023-01-12T02:09:22.274Z,0.15
2023-01-12T02:12:24.086Z,0.16
2023-01-12T02:15:23.128Z,0.19
2023-01-12T02:18:10.849Z,0.24
2023-01-12T02:21:13.327Z,0.39
2023-01-12T02:24:01.584Z,0.36
2023-01-12T02:27:08.814Z,0.35
2023-01-12T02:30:05.273Z,0.36
2023-01-12T02:32:43.354Z,0.38
2023-01-12T02:35:38.453Z,0.39
2023-01-12T02:38:53.915Z,0.35
2023-01-12T02:42:01.554Z,0.49
2023-01-12T02:44:51.945Z,0.81
2023-01-12T02:47:42.888Z,0.74
2023-01-12T02:50:30.142Z,0.73
2023-01-12T02:53:14.178Z,0.68
2023-01-12T02:55:59.538Z,0.56
2023-01-12T02:58:41.976Z,0.59
2023-01-12T03:01:18.070Z,0.59
2023-01-12T03:03:56.079Z,0.57
2023-01-12T03:06:50.830Z,0.59
2023-01-12T03:09:44.079Z,0.59
2023-01-12T03:12:24.366Z,0.65
2023-01-12T03:15:05.605Z,0.61
2023-01-12T03:18:15.771Z,0.63
2023-01-12T03:20:59.110Z,0.62
2023-01-12T03:23:47.424Z,0.82
2023-01-12T03:26:37.406Z,0.83
2023-01-12T03:29:22.173Z,0.93
2023-01-12T03:31:57.284Z,0.98
2023-01-12T03:34:49.053Z,0.88
2023-01-12T03:37:25.331Z,0.89
2023-01-12T03:40:16.559Z,0.90
2023-01-12T03:43:05.255Z,1.03
2023-01-12T03:45:40.382Z,0.98
2023-01-12T03:48:33.520Z,1.03
2023-01-12T03:51:17.720Z,0.96
2023-01-12T03:53:58.083Z,0.96
2023-01-12T03:56:40.769Z,0.99
2023-01-12T03:59:19.409Z,1.04
2023-01-12T04:01:55.054Z,1.00
2023-01-12T04:04:30.742Z,0.96
2023-01-12T04:07:08.879Z,1.01
2023-01-12T04:09:49.687Z,1.08
2023-01-12T04:12:28.252Z,1.06
2023-01-12T04:15:02.639Z,1.07
2023-01-12T04:17:34.246Z,1.04
2023-01-12T04:20:18.743Z,0.96
2023-01-12T04:22:59.358Z,1.18
2023-01-12T04:25:40.682Z,1.20
2023-01-12T04:28:18.613Z,1.34
2023-01-12T04:30:56.608Z,1.23
2023-01-12T04:33:40.652Z,1.31
2023-01-12T04:36:18.893Z,1.25
2023-01-12T04:39:02.773Z,1.24
2023-01-12T04:41:35.362Z,1.29
2023-01-12T04:44:21.949Z,1.31
2023-01-12T04:46:57.360Z,1.25
2023-01-12T04:49:42.194Z,1.22
2023-01-12T04:52:22.898Z,1.23
2023-01-12T04:55:07.894Z,1.33
2023-01-12T04:57:47.402Z,1.36
2023-01-12T05:00:22.969Z,1.41
2023-01-12T05:03:07.292Z,1.39
2023-01-12T05:05:48.475Z,1.39
2023-01-12T05:08:45.388Z,1.47
2023-01-12T05:11:21.250Z,1.57
2023-01-12T05:14:05.489Z,1.52
2023-01-12T05:16:42.651Z,1.47
2023-01-12T05:19:17.343Z,1.43
2023-01-12T05:21:59.581Z,1.41
2023-01-12T05:24:39.994Z,1.46
2023-01-12T05:27:20.182Z,1.46
2023-01-12T05:30:03.487Z,1.49
2023-01-12T05:32:49.722Z,1.57
2023-01-12T05:35:21.837Z,1.63
2023-01-12T05:37:54.016Z,1.66
2023-01-12T05:40:36.698Z,1.57
2023-01-12T05:43:31.581Z,1.63
2023-01-12T05:46:15.591Z,1.51
2023-01-12T05:48:54.105Z,1.47
2023-01-12T05:51:30.952Z,1.49
2023-01-12T05:54:07.438Z,1.60
2023-01-12T05:56:42.651Z,1.54
2023-01-12T05:59:17.844Z,1.60
2023-01-12T06:01:56.148Z,1.52
2023-01-12T06:04:38.785Z,1.55
2023-01-12T06:07:20.131Z,1.56
2023-01-12T06:09:56.311Z,1.59
2023-01-12T06:12:52.896Z,1.64
2023-01-12T06:15:38.198Z,1.66
2023-01-12T06:18:22.601Z,1.69
2023-01-12T06:21:12.106Z,1.62
2023-01-12T06:23:50.758Z,1.77
2023-01-12T06:26:35.171Z,1.73
2023-01-12T06:29:16.159Z,1.90
2023-01-12T06:31:57.391Z,1.80
2023-01-12T06:34:34.907Z,1.84
2023-01-12T06:37:13.118Z,1.83
2023-01-12T06:39:56.202Z,1.83
2023-01-12T06:42:34.393Z,1.84
2023-01-12T06:45:18.694Z,1.85
2023-01-12T06:47:53.967Z,1.87
2023-01-12T06:50:37.685Z,1.83
2023-01-12T06:53:18.426Z,1.89
2023-01-12T06:56:01.172Z,2.00
2023-01-12T06:58:48.174Z,1.98
2023-01-12T07:01:27.499Z,2.06
2023-01-12T07:04:05.489Z,2.06
2023-01-12T07:06:45.702Z,2.11
2023-01-12T07:09:21.350Z,2.12
2023-01-12T07:11:59.684Z,2.09
2023-01-12T07:14:37.480Z,2.15
2023-01-12T07:17:18.233Z,2.33
2023-01-12T07:20:10.657Z,2.44
2023-01-12T07:22:48.498Z,2.46
2023-01-12T07:25:29.109Z,2.59
2023-01-12T07:28:04.239Z,2.58
2023-01-12T07:30:50.124Z,2.52
2023-01-12T07:33:33.733Z,2.61
2023-01-12T07:36:14.485Z,2.67
2023-01-12T07:38:55.691Z,2.61
2023-01-12T07:41:54.896Z,2.75
2023-01-12T07:44:37.285Z,2.70
2023-01-12T07:47:15.042Z,2.78
2023-01-12T07:50:00.768Z,2.97
2023-01-12T07:52:44.539Z,3.05
2023-01-12T07:55:19.252Z,3.31
2023-01-12T07:58:08.788Z,3.28
2023-01-12T08:00:44.277Z,3.34
2023-01-12T08:03:27.671Z,3.40
2023-01-12T08:06:08.560Z,3.38
2023-01-12T08:08:45.287Z,3.38
2023-01-12T08:11:22.988Z,3.38
2023-01-12T08:14:05.066Z,3.48
2023-01-12T08:16:49.902Z,3.42
2023-01-12T08:19:33.050Z,3.48
2023-01-12T08:22:22.994Z,3.59
2023-01-12T08:25:05.183Z,3.56
2023-01-12T08:27:49.295Z,3.67
2023-01-12T08:30:34.045Z,3.81
2023-01-12T08:33:15.007Z,3.79
2023-01-12T08:35:59.514Z,3.83
2023-01-12T08:38:31.862Z,3.98
2023-01-12T08:41:28.012Z,3.97
2023-01-12T08:44:10.377Z,4.16
2023-01-12T08:46:52.154Z,4.00
2023-01-12T08:49:32.320Z,4.02
2023-01-12T08:52:09.825Z,4.14
2023-01-12T08:54:50.601Z,4.27
2023-01-12T08:57:26.257Z,4.27
2023-01-12T08:59:58.325Z,4.25
2023-01-12T09:02:30.672Z,4.43
2023-01-12T09:05:06.123Z,4.25
2023-01-12T09:07:43.074Z,4.21
2023-01-12T09:10:22.163Z,4.24
2023-01-12T09:12:58.878Z,4.35
2023-01-12T09:15:37.105Z,4.41
2023-01-12T09:18:12.448Z,4.54
2023-01-12T09:20:44.654Z,4.63
2023-01-12T09:23:24.653Z,4.54
2023-01-12T09:26:04.258Z,4.75
2023-01-12T09:28:40.904Z,4.86
2023-01-12T09:31:21.178Z,4.98
2023-01-12T09:33:59.471Z,4.96
2023-01-12T09:36:36.623Z,5.05
2023-01-12T09:39:27.289Z,5.19
2023-01-12T09:42:20.419Z,5.34
2023-01-12T09:45:16.829Z,5.51
2023-01-12T09:48:06.715Z,5.76
2023-01-12T09:51:05.155Z,5.78
2023-01-12T09:53:41.349Z,5.81
2023-01-12T09:56:28.044Z,5.92
2023-01-12T09:59:13.215Z,5.96
2023-01-12T10:01:56.542Z,5.99
2023-01-12T10:04:38.101Z,5.97
2023-01-12T10:07:22.707Z,6.11
2023-01-12T10:09:58.151Z,6.07
2023-01-12T10:13:06.768Z,6.21
2023-01-12T10:15:53.673Z,6.34
2023-01-12T10:18:42.466Z,6.38
2023-01-12T10:21:20.690Z,6.26
2023-01-12T10:23:57.548Z,6.36
2023-01-12T10:26:43.579Z,6.58
2023-01-12T10:29:18.193Z,6.61
2023-01-12T10:31:53.345Z,6.44
2023-01-12T10:34:34.052Z,6.44
2023-01-12T10:37:12.213Z,6.49
2023-01-12T10:39:45.605Z,6.47
2023-01-12T10:42:43.065Z,6.41
2023-01-12T10:45:27.358Z,6.55
2023-01-12T10:48:08.001Z,6.49
2023-01-12T10:50:42.613Z,6.52
2023-01-12T10:53:26.697Z,6.46
2023-01-12T10:56:02.127Z,6.50
2023-01-12T10:58:42.016Z,6.52
2023-01-12T11:01:19.721Z,6.64
2023-01-12T11:04:09.034Z,6.29
2023-01-12T11:06:44.793Z,6.57
2023-01-12T11:09:50.068Z,6.60
2023-01-12T11:12:41.025Z,6.57
2023-01-12T11:15:17.164Z,6.65
2023-01-12T11:18:02.173Z,6.68
2023-01-12T11:20:55.845Z,6.73
2023-01-12T11:24:06.034Z,6.74
2023-01-12T11:26:59.628Z,6.85
2023-01-12T11:29:37.128Z,7.00
2023-01-12T11:32:35.957Z,6.97
2023-01-12T11:35:26.536Z,6.94
2023-01-12T11:38:05.590Z,6.99
2023-01-12T11:40:47.864Z,6.89
2023-01-12T11:43:46.579Z,6.94
2023-01-12T11:46:36.089Z,7.00
2023-01-12T11:49:21.125Z,6.94
2023-01-12T11:51:53.802Z,7.01
2023-01-12T11:54:30.175Z,7.10
2023-01-12T11:57:18.119Z,7.08
2023-01-12T12:00:15.255Z,7.17
2023-01-12T12:03:29.285Z,7.38
2023-01-12T12:06:29.133Z,7.30
2023-01-12T12:09:24.293Z,7.25
2023-01-12T12:12:22.418Z,7.19
2023-01-12T12:15:09.115Z,7.24
2023-01-12T12:18:00.979Z,7.24
2023-01-12T12:20:52.010Z,7.16
2023-01-12T12:23:43.505Z,7.25
2023-01-12T12:26:33.273Z,7.29
2023-01-12T12:29:14.927Z,7.41
2023-01-12T12:31:59.987Z,7.32
2023-01-12T12:34:49.415Z,7.26
2023-01-12T12:37:41.946Z,7.20
2023-01-12T12:41:00.125Z,7.20
2023-01-12T12:43:54.627Z,7.45
2023-01-12T12:46:40.358Z,7.50
2023-01-12T12:49:27.162Z,7.44
2023-01-12T12:52:05.861Z,7.58
2023-01-12T12:54:44.127Z,7.55
2023-01-12T12:57:15.488Z,7.50
2023-01-12T12:59:57.083Z,7.54
2023-01-12T13:03:01.693Z,7.61
2023-01-12T13:05:51.945Z,7.72
2023-01-12T13:08:30.621Z,7.57
2023-01-12T13:11:12.451Z,7.54
2023-01-12T13:14:26.131Z,7.64
2023-01-12T13:17:17.095Z,7.40
2023-01-12T13:20:25.615Z,7.52
2023-01-12T13:23:01.342Z,7.52
2023-01-12T13:25:37.073Z,7.59
2023-01-12T13:28:21.405Z,7.52
2023-01-12T13:30:59.669Z,7.47
2023-01-12T13:33:34.750Z,7.51
2023-01-12T13:36:32.541Z,7.33
2023-01-12T13:39:16.824Z,7.44
2023-01-12T13:42:06.721Z,7.44
2023-01-12T13:44:49.131Z,7.54
2023-01-12T13:47:27.870Z,7.58
2023-01-12T13:50:06.985Z,7.70
2023-01-12T13:52:47.827Z,7.70
2023-01-12T13:55:27.591Z,7.61
2023-01-12T13:58:07.654Z,7.60
2023-01-12T14:00:40.239Z,7.39
2023-01-12T14:03:41.184Z,7.46
2023-01-12T14:06:44.333Z,7.52
2023-01-12T14:09:24.053Z,7.51
2023-01-12T14:12:25.152Z,7.51
2023-01-12T14:15:44.582Z,7.47
2023-01-12T14:18:20.246Z,7.42
2023-01-12T14:21:04.517Z,7.31
2023-01-12T14:23:41.749Z,7.31
2023-01-12T14:26:22.357Z,7.31
2023-01-12T14:29:03.144Z,7.31
2023-01-12T14:31:40.176Z,7.26
2023-01-12T14:34:32.831Z,7.18
2023-01-12T14:37:34.663Z,6.96
2023-01-12T14:40:10.057Z,6.86
2023-01-12T14:43:03.237Z,6.68
2023-01-12T14:45:52.800Z,6.61
2023-01-12T14:48:37.106Z,6.42
2023-01-12T14:51:36.589Z,6.33
2023-01-12T14:54:37.385Z,6.18
2023-01-12T14:57:30.635Z,5.84
2023-01-12T15:00:23.937Z,5.59
2023-01-12T15:03:02.042Z,5.31
2023-01-12T15:05:37.375Z,4.97
2023-01-12T15:08:13.665Z,4.83
2023-01-12T15:10:58.923Z,4.74
2023-01-12T15:13:35.616Z,4.72
2023-01-12T15:16:27.748Z,4.70
2023-01-12T15:19:21.306Z,4.59
2023-01-12T15:22:18.124Z,4.44
2023-01-12T15:25:19.445Z,4.28
2023-01-12T15:27:57.567Z,4.17
2023-01-12T15:30:35.285Z,4.02
2023-01-12T15:33:16.511Z,3.97
2023-01-12T15:35:59.219Z,3.77
2023-01-12T15:38:46.541Z,3.65
2023-01-12T15:41:51.608Z,3.57
2023-01-12T15:44:28.941Z,3.45
2023-01-12T15:47:05.150Z,3.32
2023-01-12T15:49:48.544Z,3.27
2023-01-12T15:52:34.252Z,3.13
2023-01-12T15:55:19.160Z,3.07
2023-01-12T15:57:54.681Z,3.03
2023-01-12T16:00:31.352Z,2.98
2023-01-12T16:03:06.369Z,2.95
2023-01-12T16:05:44.229Z,2.86
2023-01-12T16:08:30.560Z,2.76
2023-01-12T16:11:26.864Z,2.67
2023-01-12T16:14:09.606Z,2.56
2023-01-12T16:16:50.901Z,2.37
2023-01-12T16:19:29.268Z,2.35
2023-01-12T16:22:08.113Z,2.31
2023-01-12T16:24:46.940Z,2.23
2023-01-12T16:27:23.077Z,2.09
2023-01-12T16:29:57.203Z,2.05
2023-01-12T16:32:38.536Z,2.08
2023-01-12T16:35:17.088Z,1.93
2023-01-12T16:37:52.185Z,1.96
2023-01-12T16:40:34.773Z,1.92
2023-01-12T16:43:07.408Z,1.85
2023-01-12T16:45:47.059Z,1.76
2023-01-12T16:48:30.908Z,1.66
2023-01-12T16:51:06.122Z,1.49
2023-01-12T16:53:35.631Z,1.49
2023-01-12T16:56:13.626Z,1.51
2023-01-12T16:58:48.624Z,1.45
2023-01-12T17:01:26.395Z,1.38
2023-01-12T17:04:06.674Z,1.43
2023-01-12T17:06:42.497Z,1.43
2023-01-12T17:09:16.516Z,1.53
2023-01-12T17:12:02.984Z,1.59
2023-01-12T17:14:39.092Z,1.59
2023-01-12T17:17:15.957Z,1.57
2023-01-12T17:19:56.686Z,1.52
2023-01-12T17:22:35.404Z,1.45
2023-01-12T17:25:13.652Z,1.45
2023-01-12T17:27:49.550Z,1.56
2023-01-12T17:30:23.065Z,1.41
2023-01-12T17:33:02.771Z,1.34
2023-01-12T17:35:43.085Z,1.33
2023-01-12T17:38:20.884Z,1.30
2023-01-12T17:40:56.606Z,1.29
2023-01-12T17:43:34.374Z,1.20
2023-01-12T17:46:07.605Z,1.10
2023-01-12T17:48:53.973Z,1.04
2023-01-12T17:51:37.588Z,0.99
2023-01-12T17:54:17.115Z,0.95
2023-01-12T17:56:49.733Z,0.89
2023-01-12T17:59:22.979Z,0.94
2023-01-12T18:01:58.834Z,0.89
2023-01-12T18:04:36.680Z,0.94
2023-01-12T18:07:14.563Z,0.97
2023-01-12T18:10:01.107Z,0.93
2023-01-12T18:12:45.015Z,0.87
2023-01-12T18:15:29.552Z,0.67
2023-01-12T18:18:04.555Z,0.67
2023-01-12T18:20:40.184Z,0.70
2023-01-12T18:23:12.289Z,0.60
2023-01-12T18:25:47.135Z,0.48
2023-01-12T18:28:27.203Z,0.40
2023-01-12T18:31:11.076Z,0.33
2023-01-12T18:33:52.706Z,0.36
2023-01-12T18:36:36.987Z,0.39
2023-01-12T18:39:11.803Z,0.19
2023-01-12T18:42:00.200Z,0.08
2023-01-12T18:44:46.582Z,0.11
2023-01-12T18:47:40.733Z,0.02
2023-01-12T18:50:32.073Z,-0.09
2023-01-12T18:53:22.846Z,-0.25
2023-01-12T18:56:09.542Z,-0.24
2023-01-12T18:58:47.858Z,-0.25
2023-01-12T19:01:33.875Z,-0.24
2023-01-12T19:04:05.254Z,-0.28
2023-01-12T19:06:46.701Z,-0.30
2023-01-12T19:09:37.262Z,-0.35
2023-01-12T19:12:12.503Z,-0.33
2023-01-12T19:15:03.978Z,-0.27
2023-01-12T19:17:47.253Z,-0.46
2023-01-12T19:20:40.530Z,-0.48
2023-01-12T19:23:30.393Z,-0.46
2023-01-12T19:26:27.511Z,-0.45
2023-01-12T19:28:59.413Z,-0.47
2023-01-12T19:31:40.640Z,-0.42
2023-01-12T19:34:16.899Z,-0.45
2023-01-12T19:37:02.604Z,-0.49
2023-01-12T19:40:00.326Z,-0.43
2023-01-12T19:42:54.285Z,-0.48
2023-01-12T19:45:30.916Z,-0.56
2023-01-12T19:48:09.572Z,-0.54
2023-01-12T19:50:54.315Z,-0.59
2023-01-12T19:53:33.941Z,-0.46
2023-01-12T19:56:28.130Z,-0.48
2023-01-12T19:59:24.578Z,-0.38
2023-01-12T20:02:00.684Z,-0.19
2023-01-12T20:04:49.603Z,-0.04
2023-01-12T20:07:27.316Z,-0.04
2023-01-12T20:10:24.281Z,-0.04
2023-01-12T20:12:58.488Z,-0.02
2023-01-12T20:15:40.131Z,0.14
2023-01-12T20:18:18.330Z,0.16
2023-01-12T20:20:56.200Z,0.02
2023-01-12T20:23:34.437Z,-0.07
2023-01-12T20:26:15.058Z,0.07
2023-01-12T20:28:52.397Z,0.04
2023-01-12T20:31:33.881Z,-0.08
2023-01-12T20:34:18.335Z,-0.17
2023-01-12T20:37:06.540Z,-0.34
2023-01-12T20:39:39.524Z,-0.40
2023-01-12T20:42:22.480Z,-0.48
2023-01-12T20:45:07.739Z,-0.51
2023-01-12T20:47:58.307Z,-0.48
2023-01-12T20:50:36.279Z,-0.69
2023-01-12T20:53:09.190Z,-0.67
2023-01-12T20:55:54.141Z,-0.68
2023-01-12T20:58:26.944Z,-0.78
2023-01-12T21:00:59.203Z,-0.68
2023-01-12T21:03:36.212Z,-0.67
2023-01-12T21:06:21.378Z,-0.68
2023-01-12T21:09:12.798Z,-0.85
2023-01-12T21:11:50.475Z,-0.81
2023-01-12T21:14:28.441Z,-0.81
2023-01-12T21:17:09.578Z,-0.75
2023-01-12T21:19:47.827Z,-0.67
2023-01-12T21:22:23.663Z,-0.60
2023-01-12T21:25:05.556Z,-0.50
2023-01-12T21:27:43.239Z,-0.49
2023-01-12T21:30:15.665Z,-0.34
2023-01-12T21:32:55.397Z,-0.39
2023-01-12T21:35:38.051Z,-0.34
2023-01-12T21:38:19.251Z,-0.24
2023-01-12T21:40:55.107Z,-0.31
2023-01-12T21:43:41.999Z,-0.16
2023-01-12T21:46:26.094Z,-0.08
2023-01-12T21:49:17.243Z,0.00
2023-01-12T21:52:01.841Z,-0.04
2023-01-12T21:54:56.123Z,-0.18
2023-01-12T21:57:34.190Z,-0.17
2023-01-12T22:00:18.424Z,-0.12
2023-01-12T22:02:56.051Z,-0.11
2023-01-12T22:05:37.740Z,-0.17
2023-01-12T22:08:19.426Z,-0.25
2023-01-12T22:11:00.177Z,-0.33
2023-01-12T22:13:37.445Z,-0.48
2023-01-12T22:16:28.085Z,-0.55
2023-01-12T22:19:07.875Z,-0.61
2023-01-12T22:21:46.627Z,-0.72
2023-01-12T22:24:27.361Z,-0.60
2023-01-12T22:27:02.753Z,-0.53
2023-01-12T22:29:45.802Z,-0.56
2023-01-12T22:32:31.432Z,-0.61
2023-01-12T22:35:12.360Z,-0.63
2023-01-12T22:37:59.473Z,-0.64
2023-01-12T22:40:34.710Z,-0.69
2023-01-12T22:43:25.723Z,-0.71
2023-01-12T22:46:02.009Z,-0.70
2023-01-12T22:48:59.703Z,-0.79
2023-01-12T22:51:45.082Z,-0.74
2023-01-12T22:54:23.757Z,-0.78
2023-01-12T22:57:14.099Z,-0.77
2023-01-12T22:59:53.483Z,-0.80
2023-01-12T23:02:48.134Z,-0.74
2023-01-12T23:05:29.600Z,-0.79
2023-01-12T23:08:06.978Z,-0.77
2023-01-12T23:11:04.622Z,-0.69
2023-01-12T23:13:47.473Z,-0.77
2023-01-12T23:16:26.352Z,-0.84
2023-01-12T23:19:13.374Z,-0.82
2023-01-12T23:22:04.887Z,-0.98
2023-01-12T23:24:40.683Z,-0.81
2023-01-12T23:27:22.852Z,-0.85
2023-01-12T23:30:03.822Z,-0.88
2023-01-12T23:32:41.534Z,-0.89
2023-01-12T23:35:30.456Z,-0.81
2023-01-12T23:37:59.583Z,-0.71
2023-01-12T23:40:38.123Z,-0.76
2023-01-12T23:43:22.009Z,-0.81
2023-01-12T23:46:15.749Z,-0.83
2023-01-12T23:48:54.271Z,-0.82
2023-01-12T23:51:36.295Z,-0.73
2023-01-12T23:54:22.753Z,-0.69
2023-01-12T23:56:58.414Z,-0.72
2023-01-12T23:59:36.044Z,-0.75
